Time;durP1;ratioP1;P1;durP2;ratioP2;P2;SDS_P1;SDS_P2;PMS_P1;PMS_P2;Temp;Humidity;BMP_temperature;BMP_pressure;BME280_temperature;BME280_humidity;BME280_pressure;Samples;Min_cycle;Max_cycle;Signal;HPM_P1;HPM_P2
2021/07/18 00:00:50;;;;;;;13.82;4.07;;;18.80;79.30;;;;;;5012520;28;20057;-80
2021/07/18 00:03:18;;;;;;;14.18;3.92;;;18.70;79.50;;;;;;5012318;28;20101;-81
2021/07/18 00:05:46;;;;;;;12.45;4.65;;;18.70;79.70;;;;;;5012637;28;20038;-79
2021/07/18 00:08:13;;;;;;;9.77;4.22;;;18.70;79.90;;;;;;5012447;28;20216;-80
2021/07/18 00:10:41;;;;;;;6.85;4.53;;;18.70;79.90;;;;;;5012432;28;20407;-80
2021/07/18 00:13:08;;;;;;;7.97;4.53;;;18.70;80.20;;;;;;5012456;28;20042;-80
2021/07/18 00:15:36;;;;;;;13.27;4.10;;;18.60;80.30;;;;;;5012445;28;20545;-79
2021/07/18 00:18:03;;;;;;;13.85;4.20;;;18.60;80.40;;;;;;5012357;28;20046;-79
2021/07/18 00:20:31;;;;;;;9.15;4.47;;;18.50;80.60;;;;;;5012497;28;20049;-78
2021/07/18 00:22:59;;;;;;;9.65;4.43;;;18.50;80.60;;;;;;5012532;28;20050;-78
2021/07/18 00:25:26;;;;;;;13.02;4.85;;;18.50;80.70;;;;;;5012761;28;20401;-78
2021/07/18 00:27:54;;;;;;;13.13;4.75;;;18.40;80.70;;;;;;5012408;28;20053;-79
2021/07/18 00:30:22;;;;;;;14.85;4.22;;;18.40;80.80;;;;;;5012471;28;20060;-79
2021/07/18 00:32:50;;;;;;;11.15;4.68;;;18.40;81.10;;;;;;5012397;28;20061;-79
2021/07/18 00:35:18;;;;;;;13.82;5.20;;;18.40;81.10;;;;;;5012107;28;20388;-79
2021/07/18 00:37:46;;;;;;;24.02;8.38;;;18.30;81.10;;;;;;5015689;28;20057;-79
2021/07/18 00:40:14;;;;;;;19.92;7.38;;;18.30;81.30;;;;;;5031883;28;20052;-79
2021/07/18 00:42:41;;;;;;;19.73;7.38;;;18.20;81.40;;;;;;5031797;28;20327;-79
2021/07/18 00:45:09;;;;;;;15.95;6.20;;;18.10;81.60;;;;;;5031806;28;20486;-79
2021/07/18 00:47:39;;;;;;;14.70;6.20;;;18.00;81.80;;;;;;5032087;28;20049;-79
2021/07/18 00:50:13;;;;;;;19.73;6.45;;;17.90;82.00;;;;;;5046390;28;20057;-79
2021/07/18 00:52:41;;;;;;;14.93;6.65;;;17.80;82.20;;;;;;5015728;28;20057;-79
2021/07/18 00:55:10;;;;;;;14.45;5.68;;;17.80;82.40;;;;;;5015847;28;20049;-79
2021/07/18 00:57:38;;;;;;;11.48;4.70;;;17.80;82.60;;;;;;5015788;28;20042;-78
2021/07/18 01:00:09;;;;;;;13.93;5.10;;;17.80;82.80;;;;;;5014281;28;20057;-79
2021/07/18 01:02:38;;;;;;;9.77;4.75;;;17.80;82.90;;;;;;5030905;28;20042;-79
2021/07/18 01:05:08;;;;;;;10.15;5.07;;;17.90;82.90;;;;;;5015700;28;20046;-79
2021/07/18 01:07:36;;;;;;;10.18;4.93;;;18.00;82.90;;;;;;5027633;28;20057;-79
2021/07/18 01:10:05;;;;;;;9.50;5.15;;;17.90;82.70;;;;;;5019175;28;20061;-79
2021/07/18 01:12:34;;;;;;;10.80;4.97;;;18.00;82.50;;;;;;5015562;28;20041;-79
2021/07/18 01:15:02;;;;;;;7.18;5.05;;;17.90;82.50;;;;;;5030735;28;20050;-79
2021/07/18 01:17:30;;;;;;;9.82;5.40;;;17.90;82.50;;;;;;5014362;28;20065;-79
2021/07/18 01:19:59;;;;;;;14.63;5.68;;;17.90;82.50;;;;;;5030119;28;20204;-79
2021/07/18 01:22:27;;;;;;;9.65;5.30;;;17.80;82.60;;;;;;5015881;28;20361;-79
2021/07/18 01:24:55;;;;;;;11.40;5.25;;;17.80;82.70;;;;;;5030571;28;20057;-78
2021/07/18 01:27:23;;;;;;;11.80;5.47;;;17.70;82.90;;;;;;5013810;28;20053;-80
2021/07/18 01:29:51;;;;;;;14.38;5.70;;;17.70;83.00;;;;;;5015119;28;20046;-79
2021/07/18 01:32:20;;;;;;;9.68;5.03;;;17.60;83.10;;;;;;5015239;28;20061;-79
2021/07/18 01:34:48;;;;;;;8.45;5.00;;;17.60;83.20;;;;;;5029352;28;20527;-79
2021/07/18 01:37:17;;;;;;;15.93;5.97;;;17.50;83.30;;;;;;5015567;28;20053;-80
2021/07/18 01:39:46;;;;;;;12.00;6.53;;;17.50;83.30;;;;;;4999002;28;20049;-79
2021/07/18 01:42:14;;;;;;;26.05;9.30;;;17.40;83.40;;;;;;5015433;28;20045;-79
2021/07/18 01:44:42;;;;;;;26.17;8.75;;;17.30;83.80;;;;;;5015621;28;20054;-79
2021/07/18 01:47:11;;;;;;;20.75;7.78;;;17.30;84.00;;;;;;5015051;28;20510;-79
2021/07/18 01:49:39;;;;;;;10.77;6.13;;;17.20;84.20;;;;;;5014354;28;20056;-79
2021/07/18 01:52:07;;;;;;;10.88;5.47;;;17.10;84.40;;;;;;5013444;28;20050;-79
2021/07/18 01:54:35;;;;;;;9.07;5.97;;;17.10;84.60;;;;;;5014214;28;20050;-80
2021/07/18 01:57:13;;;;;;;13.85;5.70;;;17.10;84.60;;;;;;5014692;28;20053;-79
2021/07/18 01:59:41;;;;;;;12.93;5.82;;;17.20;84.80;;;;;;5014608;28;20061;-79
2021/07/18 02:02:09;;;;;;;10.70;5.97;;;17.30;84.70;;;;;;5013750;28;20399;-79
2021/07/18 02:04:36;;;;;;;12.23;6.10;;;17.20;84.70;;;;;;5014515;28;20061;-80
2021/07/18 02:07:05;;;;;;;10.10;5.50;;;17.30;84.70;;;;;;5014492;28;20423;-80
2021/07/18 02:09:36;;;;;;;11.38;5.68;;;17.30;84.70;;;;;;5014374;28;20070;-80
2021/07/18 02:12:06;;;;;;;11.57;6.25;;;17.20;84.70;;;;;;5014322;28;20042;-79
2021/07/18 02:14:40;;;;;;;20.20;8.10;;;17.20;84.60;;;;;;5014667;28;20518;-79
2021/07/18 02:17:08;;;;;;;24.67;10.23;;;17.00;84.60;;;;;;5029820;28;20042;-79
2021/07/18 02:19:36;;;;;;;19.23;9.27;;;16.90;84.70;;;;;;5014138;28;20062;-79
2021/07/18 02:22:05;;;;;;;21.95;8.75;;;16.80;85.00;;;;;;5014219;28;20423;-79
2021/07/18 02:24:33;;;;;;;21.42;8.75;;;16.60;85.20;;;;;;5028976;28;20515;-79
2021/07/18 02:27:00;;;;;;;18.40;8.68;;;16.50;85.60;;;;;;5013975;28;20046;-79
2021/07/18 02:29:28;;;;;;;21.73;8.85;;;16.40;85.90;;;;;;5013959;28;20399;-79
2021/07/18 02:31:56;;;;;;;18.75;8.02;;;16.30;86.10;;;;;;5014103;28;20056;-79
2021/07/18 02:34:24;;;;;;;17.48;8.10;;;16.30;86.30;;;;;;5014539;28;20058;-79
2021/07/18 02:36:52;;;;;;;14.30;7.28;;;16.20;86.50;;;;;;5013525;28;20066;-79
2021/07/18 02:39:21;;;;;;;16.73;7.68;;;16.10;86.70;;;;;;5012733;28;20052;-78
2021/07/18 02:41:48;;;;;;;14.85;8.18;;;16.00;86.70;;;;;;5012657;28;20064;-79
2021/07/18 02:44:16;;;;;;;16.77;7.97;;;16.00;87.00;;;;;;5013848;28;20046;-78
2021/07/18 02:46:43;;;;;;;16.77;9.10;;;16.00;87.10;;;;;;5013684;28;20050;-78
2021/07/18 02:49:11;;;;;;;15.38;8.63;;;15.90;87.10;;;;;;5013493;28;20053;-79
2021/07/18 02:51:39;;;;;;;17.75;8.20;;;15.90;87.30;;;;;;5014114;28;20053;-79
2021/07/18 02:54:07;;;;;;;14.38;8.60;;;15.80;87.60;;;;;;5013743;28;20396;-79
2021/07/18 02:56:34;;;;;;;18.73;9.85;;;15.80;87.80;;;;;;5048434;28;20050;-79
2021/07/18 02:59:02;;;;;;;29.33;11.93;;;15.80;87.90;;;;;;5033000;28;20050;-80
2021/07/18 03:01:29;;;;;;;26.67;11.35;;;15.70;88.20;;;;;;5034795;28;20621;-79
2021/07/18 03:03:57;;;;;;;28.05;11.35;;;15.70;88.40;;;;;;5036101;28;20502;-79
2021/07/18 03:06:25;;;;;;;27.55;11.60;;;15.80;88.40;;;;;;5048731;28;20048;-79
2021/07/18 03:08:52;;;;;;;31.77;11.88;;;15.70;88.40;;;;;;5034240;28;20341;-80
2021/07/18 03:11:20;;;;;;;27.60;11.30;;;15.60;88.40;;;;;;5031316;28;20053;-80
2021/07/18 03:13:48;;;;;;;28.60;11.45;;;15.60;88.50;;;;;;5046970;28;20034;-80
2021/07/18 03:16:15;;;;;;;23.73;10.70;;;15.60;88.60;;;;;;5032229;28;20053;-79
2021/07/18 03:18:43;;;;;;;24.95;10.23;;;15.50;88.70;;;;;;5031439;28;20533;-80
2021/07/18 03:21:11;;;;;;;20.02;10.05;;;15.40;88.70;;;;;;5032371;28;20041;-80
2021/07/18 03:23:38;;;;;;;23.67;10.35;;;15.40;88.80;;;;;;5029792;28;20053;-80
2021/07/18 03:26:06;;;;;;;21.33;11.30;;;15.30;88.80;;;;;;5027896;28;20041;-82
2021/07/18 03:28:34;;;;;;;20.80;11.07;;;15.30;88.90;;;;;;5011422;28;20439;-80
2021/07/18 03:31:01;;;;;;;19.45;10.10;;;15.20;89.00;;;;;;5012587;28;20061;-79
2021/07/18 03:33:29;;;;;;;23.17;10.85;;;15.20;89.20;;;;;;5013042;28;20046;-79
2021/07/18 03:35:57;;;;;;;19.75;10.32;;;15.20;89.30;;;;;;5012547;28;20049;-80
2021/07/18 03:38:24;;;;;;;19.48;10.48;;;15.10;89.40;;;;;;5012868;28;20050;-80
2021/07/18 03:40:52;;;;;;;22.67;10.35;;;15.10;89.50;;;;;;5013508;28;20519;-80
2021/07/18 03:43:19;;;;;;;23.45;9.90;;;15.10;89.50;;;;;;5012834;28;20050;-80
2021/07/18 03:45:47;;;;;;;20.63;9.68;;;15.10;89.60;;;;;;5012821;28;20057;-80
2021/07/18 03:48:15;;;;;;;24.55;11.50;;;15.00;89.60;;;;;;5012064;28;20049;-78
2021/07/18 03:50:42;;;;;;;28.40;14.40;;;15.00;89.70;;;;;;5012658;28;20049;-79
2021/07/18 03:53:10;;;;;;;26.15;12.88;;;15.00;89.70;;;;;;5012695;28;20495;-79
2021/07/18 03:55:37;;;;;;;32.63;15.77;;;15.00;89.70;;;;;;5012320;28;20061;-79
2021/07/18 03:58:05;;;;;;;37.13;18.88;;;14.90;89.70;;;;;;5032425;28;20049;-79
2021/07/18 04:00:32;;;;;;;39.38;17.00;;;14.90;89.70;;;;;;5015875;28;20057;-79
2021/07/18 04:03:00;;;;;;;29.65;13.68;;;14.90;89.70;;;;;;5013563;28;20052;-78
2021/07/18 04:05:28;;;;;;;27.58;13.52;;;14.90;89.70;;;;;;5013053;28;20053;-79
2021/07/18 04:07:55;;;;;;;19.58;11.20;;;14.80;89.80;;;;;;5012609;28;20391;-78
2021/07/18 04:10:24;;;;;;;20.40;10.60;;;14.80;89.90;;;;;;5012423;28;20050;-78
2021/07/18 04:12:51;;;;;;;16.42;10.77;;;14.80;90.00;;;;;;5012360;28;20042;-78
2021/07/18 04:15:19;;;;;;;21.00;11.65;;;14.80;90.00;;;;;;5044274;28;20053;-79
2021/07/18 04:17:46;;;;;;;19.83;11.18;;;14.70;90.10;;;;;;5011411;28;20053;-79
2021/07/18 04:20:14;;;;;;;19.88;11.43;;;14.80;90.10;;;;;;5012408;28;20050;-79
2021/07/18 04:22:42;;;;;;;21.13;11.25;;;14.80;90.30;;;;;;5012288;28;20045;-79
2021/07/18 04:25:10;;;;;;;16.70;10.30;;;14.80;90.30;;;;;;5014211;28;20049;-79
2021/07/18 04:27:38;;;;;;;23.23;11.30;;;14.80;90.30;;;;;;5014971;28;20050;-79
2021/07/18 04:30:07;;;;;;;15.93;9.18;;;14.70;90.40;;;;;;5016193;28;20050;-79
2021/07/18 04:32:35;;;;;;;17.20;9.57;;;14.80;90.50;;;;;;5031395;28;20048;-79
2021/07/18 04:35:03;;;;;;;19.52;10.52;;;14.80;90.50;;;;;;5031315;28;20041;-79
2021/07/18 04:37:30;;;;;;;17.00;9.38;;;14.70;90.60;;;;;;5016087;28;20044;-79
2021/07/18 04:39:58;;;;;;;14.60;10.35;;;14.70;90.70;;;;;;5016595;28;20090;-79
2021/07/18 04:42:25;;;;;;;19.45;9.68;;;14.80;90.60;;;;;;5015922;28;20057;-79
2021/07/18 04:44:53;;;;;;;25.77;13.57;;;14.80;90.60;;;;;;5015978;28;20049;-79
2021/07/18 04:47:20;;;;;;;36.25;14.65;;;14.80;90.60;;;;;;5016014;28;20515;-79
2021/07/18 04:49:48;;;;;;;32.88;14.68;;;14.90;90.60;;;;;;5015757;28;20050;-79
2021/07/18 04:52:17;;;;;;;30.95;14.70;;;14.90;90.60;;;;;;5014805;28;20054;-79
2021/07/18 04:54:45;;;;;;;33.80;14.70;;;14.90;90.60;;;;;;5015669;28;20042;-79
2021/07/18 04:57:12;;;;;;;22.58;12.95;;;15.00;90.70;;;;;;5016267;28;20058;-79
2021/07/18 04:59:39;;;;;;;25.15;13.23;;;15.00;90.70;;;;;;5015837;28;20050;-79
2021/07/18 05:02:07;;;;;;;25.45;13.07;;;15.00;90.70;;;;;;5015919;28;20049;-79
2021/07/18 05:04:35;;;;;;;26.75;13.48;;;15.10;90.60;;;;;;5026838;28;20050;-80
2021/07/18 05:07:03;;;;;;;23.20;12.57;;;15.10;90.70;;;;;;5037928;28;20050;-80
2021/07/18 05:09:31;;;;;;;27.10;13.30;;;15.20;90.60;;;;;;5015473;28;20050;-79
2021/07/18 05:11:58;;;;;;;25.60;13.50;;;15.20;90.50;;;;;;5030476;28;20045;-79
2021/07/18 05:14:27;;;;;;;23.83;12.70;;;15.30;90.50;;;;;;5015359;28;20050;-79
2021/07/18 05:16:54;;;;;;;21.92;13.20;;;15.30;90.50;;;;;;5015372;28;20061;-79
2021/07/18 05:19:22;;;;;;;18.02;11.57;;;15.30;90.40;;;;;;5015293;28;20049;-79
2021/07/18 05:21:49;;;;;;;19.83;12.60;;;15.40;90.40;;;;;;5030291;28;20053;-79
2021/07/18 05:24:17;;;;;;;18.10;12.45;;;15.50;90.40;;;;;;5014049;28;20050;-79
2021/07/18 05:26:45;;;;;;;23.00;12.52;;;15.50;90.30;;;;;;5015073;28;20042;-79
2021/07/18 05:29:12;;;;;;;19.38;11.90;;;15.60;90.30;;;;;;5015674;28;20061;-78
2021/07/18 05:31:40;;;;;;;21.50;14.13;;;15.70;90.20;;;;;;5013920;28;20487;-80
2021/07/18 05:34:07;;;;;;;21.90;12.38;;;15.80;90.10;;;;;;5030387;28;20045;-79
2021/07/18 05:36:35;;;;;;;20.15;11.75;;;15.80;90.00;;;;;;5014067;28;20049;-79
2021/07/18 05:39:04;;;;;;;20.30;12.88;;;15.90;89.90;;;;;;5030249;28;20487;-79
2021/07/18 05:41:32;;;;;;;19.95;12.55;;;16.00;89.80;;;;;;5015080;28;20057;-79
2021/07/18 05:43:59;;;;;;;19.55;11.70;;;16.10;89.70;;;;;;5014944;28;20414;-79
2021/07/18 05:46:27;;;;;;;21.45;13.00;;;16.30;89.50;;;;;;5014053;28;20050;-79
2021/07/18 05:48:54;;;;;;;19.08;13.10;;;16.50;89.20;;;;;;5014770;28;20057;-79
2021/07/18 05:51:22;;;;;;;22.45;12.93;;;16.60;88.80;;;;;;5013541;28;20058;-79
2021/07/18 05:53:50;;;;;;;20.98;13.55;;;16.70;88.60;;;;;;5014982;28;20050;-79
2021/07/18 05:56:19;;;;;;;21.52;11.60;;;16.80;88.50;;;;;;5030030;28;20376;-79
2021/07/18 05:58:47;;;;;;;19.48;11.68;;;16.80;88.30;;;;;;5014596;28;20410;-79
2021/07/18 06:01:14;;;;;;;26.75;12.50;;;16.90;88.20;;;;;;5014479;28;20046;-79
2021/07/18 06:03:42;;;;;;;18.58;11.55;;;17.10;88.00;;;;;;5014508;28;20042;-79
2021/07/18 06:06:09;;;;;;;21.52;11.50;;;17.20;87.90;;;;;;5014490;28;20498;-80
2021/07/18 06:08:37;;;;;;;18.80;11.50;;;17.30;87.70;;;;;;5014308;28;20061;-79
2021/07/18 06:11:04;;;;;;;19.33;11.05;;;17.40;87.50;;;;;;5012411;28;20061;-79
2021/07/18 06:13:32;;;;;;;22.27;11.68;;;17.60;87.30;;;;;;5014298;28;20038;-80
2021/07/18 06:16:00;;;;;;;15.05;10.88;;;17.80;87.00;;;;;;5013173;28;20054;-79
2021/07/18 06:18:27;;;;;;;21.65;10.52;;;17.90;86.60;;;;;;5014081;28;20100;-80
2021/07/18 06:20:55;;;;;;;19.77;10.38;;;18.00;86.40;;;;;;5014300;28;20057;-78
2021/07/18 06:23:22;;;;;;;17.20;10.25;;;18.20;86.10;;;;;;5013996;28;20228;-80
2021/07/18 06:26:04;;;;;;;15.82;9.35;;;18.30;85.80;;;;;;5016381;28;20503;-81
2021/07/18 06:28:32;;;;;;;16.45;9.52;;;18.40;85.50;;;;;;5014765;28;20038;-78
2021/07/18 06:31:01;;;;;;;13.77;8.77;;;18.60;85.30;;;;;;5045943;28;20057;-79
2021/07/18 06:33:29;;;;;;;17.65;8.95;;;18.70;85.00;;;;;;5014482;28;20399;-80
2021/07/18 06:35:56;;;;;;;16.55;8.50;;;18.80;84.80;;;;;;5013943;28;20062;-80
2021/07/18 06:38:24;;;;;;;17.67;7.95;;;18.90;84.50;;;;;;5013913;28;20042;-79
2021/07/18 06:40:51;;;;;;;15.50;7.50;;;19.00;84.20;;;;;;5014132;28;20391;-79
2021/07/18 06:43:19;;;;;;;19.65;7.97;;;19.10;84.00;;;;;;5014288;28;20045;-80
2021/07/18 06:45:47;;;;;;;11.77;7.50;;;19.30;83.70;;;;;;5014206;28;20046;-79
2021/07/18 06:48:14;;;;;;;12.32;7.70;;;19.30;83.50;;;;;;5013813;28;20050;-78
2021/07/18 06:50:42;;;;;;;13.60;7.43;;;19.40;83.20;;;;;;5013890;28;20046;-79
2021/07/18 06:53:09;;;;;;;9.82;7.65;;;19.50;83.00;;;;;;5012731;28;20058;-81
2021/07/18 06:55:37;;;;;;;11.88;7.28;;;19.60;82.80;;;;;;5029722;28;20396;-82
2021/07/18 06:58:05;;;;;;;11.73;7.35;;;19.70;82.70;;;;;;5013122;28;20439;-89
2021/07/18 07:00:32;;;;;;;13.82;6.80;;;19.80;82.60;;;;;;5013850;28;20056;-76
2021/07/18 07:03:00;;;;;;;11.93;7.20;;;19.90;82.40;;;;;;5015696;28;20065;-84
2021/07/18 07:05:29;;;;;;;11.35;6.05;;;20.00;82.30;;;;;;5019300;28;20392;-81
2021/07/18 07:07:57;;;;;;;8.43;6.03;;;20.10;82.00;;;;;;5014109;28;20057;-82
2021/07/18 07:10:24;;;;;;;8.35;5.68;;;20.10;81.60;;;;;;5013605;28;20061;-82
2021/07/18 07:12:52;;;;;;;8.20;4.30;;;20.30;81.10;;;;;;5029139;28;20483;-83
2021/07/18 07:15:20;;;;;;;6.82;4.43;;;20.30;80.50;;;;;;5014027;28;20474;-81
2021/07/18 07:17:47;;;;;;;6.30;4.18;;;20.40;79.70;;;;;;5031638;28;20057;-82
2021/07/18 07:20:15;;;;;;;10.10;3.42;;;20.50;79.20;;;;;;5027271;28;20061;-81
2021/07/18 07:22:43;;;;;;;5.15;3.08;;;20.60;78.70;;;;;;5033093;28;20053;-82
2021/07/18 07:25:13;;;;;;;4.32;3.20;;;20.70;78.20;;;;;;5048598;28;20060;-81
2021/07/18 07:27:41;;;;;;;4.45;2.85;;;20.80;77.10;;;;;;5032384;28;20057;-81
2021/07/18 07:30:12;;;;;;;3.33;2.28;;;20.90;76.60;;;;;;5032923;28;20057;-80
2021/07/18 07:32:39;;;;;;;3.55;2.80;;;21.00;75.80;;;;;;5030373;28;20050;-80
2021/07/18 07:35:09;;;;;;;5.20;2.67;;;21.10;75.00;;;;;;5033032;28;20057;-81
2021/07/18 07:37:37;;;;;;;5.82;3.05;;;21.20;74.50;;;;;;5032062;28;20052;-81
2021/07/18 07:40:07;;;;;;;5.28;2.90;;;21.30;74.20;;;;;;5032442;28;20413;-81
2021/07/18 07:42:34;;;;;;;5.80;2.92;;;21.30;73.80;;;;;;5048127;28;20052;-80
2021/07/18 07:45:04;;;;;;;5.95;3.38;;;21.40;73.20;;;;;;5032455;28;20041;-82
2021/07/18 07:47:32;;;;;;;5.55;2.95;;;21.50;72.60;;;;;;5033258;28;20119;-80
2021/07/18 07:50:00;;;;;;;3.70;2.70;;;21.60;72.40;;;;;;5047627;28;20053;-82
2021/07/18 07:52:28;;;;;;;6.57;3.10;;;21.70;72.00;;;;;;5031016;28;20049;-81
2021/07/18 07:54:56;;;;;;;7.03;3.00;;;21.80;71.60;;;;;;5064360;28;20068;-82
2021/07/18 07:57:24;;;;;;;3.75;2.78;;;21.80;71.30;;;;;;5032244;28;20049;-82
2021/07/18 07:59:51;;;;;;;4.85;2.75;;;22.00;70.80;;;;;;5031793;28;20060;-82
2021/07/18 08:02:19;;;;;;;4.50;2.88;;;22.00;70.30;;;;;;5032574;28;20045;-81
2021/07/18 08:04:47;;;;;;;4.32;2.70;;;22.20;69.70;;;;;;5032061;28;20050;-81
2021/07/18 08:07:14;;;;;;;5.85;2.75;;;22.20;69.20;;;;;;5032150;28;20052;-81
2021/07/18 08:09:42;;;;;;;4.00;2.50;;;22.30;68.20;;;;;;5032051;28;20201;-81
2021/07/18 08:12:10;;;;;;;3.58;2.80;;;22.40;67.60;;;;;;5032090;28;20057;-81
2021/07/18 08:14:37;;;;;;;5.45;2.92;;;22.50;67.10;;;;;;5032225;28;20072;-82
2021/07/18 08:17:05;;;;;;;4.05;2.38;;;22.70;66.80;;;;;;5047204;28;20061;-79
2021/07/18 08:19:33;;;;;;;4.57;2.60;;;22.70;66.70;;;;;;5031969;28;20491;-81
2021/07/18 08:22:00;;;;;;;5.20;2.88;;;22.80;66.80;;;;;;5032067;28;20052;-81
2021/07/18 08:24:29;;;;;;;4.38;3.00;;;22.90;66.50;;;;;;5032243;28;20042;-80
2021/07/18 08:26:56;;;;;;;5.47;2.67;;;23.00;65.90;;;;;;5031978;28;20057;-81
2021/07/18 08:29:24;;;;;;;6.68;2.90;;;23.10;65.60;;;;;;5032327;28;20053;-81
2021/07/18 08:31:57;;;;;;;7.70;2.75;;;23.20;65.20;;;;;;5032581;28;20056;-80
2021/07/18 08:34:25;;;;;;;;;;;23.30;64.70;;;;;;5032712;28;20049;-81
2021/07/18 08:36:53;;;;;;;6.07;3.13;;;23.30;64.30;;;;;;5032074;28;19921;-79
2021/07/18 08:39:20;;;;;;;7.18;3.28;;;23.30;64.00;;;;;;5032178;28;20046;-81
2021/07/18 08:41:50;;;;;;;4.85;3.20;;;23.40;63.40;;;;;;5031972;28;20049;-81
2021/07/18 08:44:18;;;;;;;4.55;3.28;;;23.40;63.20;;;;;;5030798;28;20049;-80
2021/07/18 08:46:45;;;;;;;6.57;3.05;;;23.50;63.20;;;;;;5040246;28;20057;-81
2021/07/18 08:49:13;;;;;;;6.82;3.08;;;23.60;63.20;;;;;;5040255;28;20483;-80
2021/07/18 08:51:40;;;;;;;3.67;3.25;;;23.70;62.90;;;;;;5048401;28;20056;-80
2021/07/18 08:54:08;;;;;;;5.07;3.65;;;23.70;62.60;;;;;;5047492;28;20487;-80
2021/07/18 08:56:37;;;;;;;5.90;4.10;;;23.80;62.60;;;;;;5032147;28;20059;-80
2021/07/18 08:59:06;;;;;;;9.27;5.45;;;23.80;62.80;;;;;;5032213;28;20041;-80
2021/07/18 09:01:39;;;;;;;7.18;5.22;;;23.90;62.80;;;;;;5032628;28;20049;-80
2021/07/18 09:04:07;;;;;;;5.90;4.70;;;24.00;63.10;;;;;;5067869;28;20049;-80
2021/07/18 09:06:47;;;;;;;6.13;4.82;;;24.10;63.30;;;;;;5064900;28;20053;-80
2021/07/18 09:09:20;;;;;;;4.63;4.22;;;24.30;63.00;;;;;;5031899;28;20051;-79
2021/07/18 09:11:57;;;;;;;5.97;4.93;;;24.30;62.90;;;;;;5065334;28;20045;-79
2021/07/18 09:14:40;;;;;;;6.35;4.82;;;24.30;62.50;;;;;;5035954;28;20053;-79
2021/07/18 09:17:25;;;;;;;5.65;4.10;;;24.30;62.20;;;;;;5035381;28;20061;-79
2021/07/18 09:19:53;;;;;;;4.82;3.83;;;24.40;62.20;;;;;;5035555;28;20380;-79
2021/07/18 09:22:24;;;;;;;6.85;4.60;;;24.50;62.00;;;;;;5035713;28;20398;-79
2021/07/18 09:24:54;;;;;;;7.00;3.55;;;24.50;61.60;;;;;;5035358;28;20050;-80
2021/07/18 09:27:30;;;;;;;5.50;4.15;;;24.60;61.50;;;;;;5035178;28;20053;-79
2021/07/18 09:30:05;;;;;;;5.18;4.40;;;24.70;61.10;;;;;;5033253;28;20049;-79
2021/07/18 09:32:34;;;;;;;4.78;4.00;;;24.80;60.40;;;;;;5033726;28;20064;-80
2021/07/18 09:35:06;;;;;;;5.03;3.80;;;24.80;60.20;;;;;;5033809;28;20406;-80
2021/07/18 09:37:54;;;;;;;6.20;4.30;;;24.80;59.90;;;;;;5035056;28;20049;-81
2021/07/18 09:40:23;;;;;;;5.70;4.07;;;24.80;59.50;;;;;;5034810;28;20410;-80
2021/07/18 09:42:54;;;;;;;4.60;3.60;;;24.80;59.40;;;;;;5033729;28;20056;-80
2021/07/18 09:45:25;;;;;;;5.47;3.65;;;24.90;59.10;;;;;;5033343;28;20049;-80
2021/07/18 09:47:55;;;;;;;6.78;4.07;;;24.90;59.20;;;;;;5032906;28;20068;-80
2021/07/18 09:50:31;;;;;;;6.28;3.58;;;25.00;58.70;;;;;;5034331;28;20041;-80
2021/07/18 09:53:22;;;;;;;5.93;3.20;;;25.10;58.20;;;;;;5034354;28;20050;-79
2021/07/18 09:56:07;;;;;;;5.60;3.50;;;25.20;58.20;;;;;;5034549;28;20364;-81
2021/07/18 09:58:38;;;;;;;5.13;3.20;;;25.30;57.80;;;;;;5034553;28;20045;-81
2021/07/18 10:01:15;;;;;;;9.00;3.35;;;25.30;57.50;;;;;;5032674;28;20050;-80
2021/07/18 10:03:47;;;;;;;5.50;3.10;;;25.50;57.50;;;;;;5032955;28;20056;-80
2021/07/18 10:06:15;;;;;;;4.70;3.40;;;25.60;57.40;;;;;;5034205;28;20056;-80
2021/07/18 10:08:52;;;;;;;5.57;3.72;;;25.70;56.70;;;;;;5034152;28;20045;-80
2021/07/18 10:11:22;;;;;;;5.30;3.65;;;25.80;56.10;;;;;;5033928;28;20079;-79
2021/07/18 10:13:51;;;;;;;5.10;3.60;;;25.90;56.30;;;;;;5033579;28;20052;-79
2021/07/18 10:16:22;;;;;;;5.53;3.40;;;26.10;55.90;;;;;;5033196;28;20041;-79
2021/07/18 10:18:52;;;;;;;6.28;3.83;;;26.10;55.00;;;;;;5033639;28;20060;-79
2021/07/18 10:21:23;;;;;;;31.85;12.00;;;26.10;55.00;;;;;;5033632;28;20056;-77
2021/07/18 10:23:53;;;;;;;6.50;3.30;;;26.10;54.60;;;;;;5030683;28;20041;-84
2021/07/18 10:26:35;;;;;;;7.53;3.22;;;26.20;54.60;;;;;;5032886;28;20045;-78
2021/07/18 10:29:03;;;;;;;8.45;3.08;;;26.30;54.80;;;;;;5031849;28;20041;-82
2021/07/18 10:31:36;;;;;;;7.68;4.10;;;26.40;54.70;;;;;;5033222;28;20056;-79
2021/07/18 10:34:05;;;;;;;;;;;26.50;53.80;;;;;;5033577;28;20064;-79
2021/07/18 10:36:34;;;;;;;7.63;4.30;;;26.60;53.60;;;;;;5031784;28;20401;-78
2021/07/18 10:39:30;;;;;;;7.22;3.83;;;26.70;53.30;;;;;;5015646;28;20058;-79
2021/07/18 10:41:59;;;;;;;3.88;3.10;;;26.80;52.70;;;;;;5031022;28;20045;-79
2021/07/18 10:44:40;;;;;;;6.78;3.28;;;26.90;52.70;;;;;;5032768;28;20495;-79
2021/07/18 10:47:13;;;;;;;5.07;3.42;;;27.10;51.90;;;;;;5036520;28;20049;-77
2021/07/18 10:49:59;;;;;;;3.33;3.00;;;27.20;51.60;;;;;;5032245;28;20049;-80
2021/07/18 10:52:31;;;;;;;4.63;3.00;;;27.40;51.20;;;;;;5031659;28;20068;-79
2021/07/18 10:55:21;;;;;;;7.90;3.47;;;27.60;51.30;;;;;;5032633;28;20057;-79
2021/07/18 10:57:51;;;;;;;4.53;3.22;;;27.80;50.80;;;;;;5032411;28;20060;-80
2021/07/18 11:00:23;;;;;;;5.75;3.30;;;27.80;50.00;;;;;;5032780;28;20041;-79
2021/07/18 11:03:13;;;;;;;4.80;3.13;;;27.90;49.70;;;;;;5033155;28;20041;-80
2021/07/18 11:05:47;;;;;;;9.70;3.20;;;28.00;49.40;;;;;;5035908;28;20041;-81
2021/07/18 11:08:14;;;;;;;3.47;2.85;;;28.00;48.80;;;;;;5033115;28;20060;-82
2021/07/18 11:10:48;;;;;;;6.22;2.97;;;27.90;48.80;;;;;;5033971;28;20045;-80
2021/07/18 11:13:16;;;;;;;5.95;3.08;;;28.10;49.00;;;;;;5033090;28;20394;-80
2021/07/18 11:15:44;;;;;;;7.53;2.80;;;28.30;48.10;;;;;;5033319;28;20041;-80
2021/07/18 11:18:17;;;;;;;8.10;3.13;;;28.30;47.20;;;;;;5032859;28;20057;-79
2021/07/18 11:20:48;;;;;;;;;;;28.40;46.90;;;;;;5032902;28;20097;-80
2021/07/18 11:23:47;;;;;;;5.90;2.38;;;28.50;46.50;;;;;;5030863;28;19921;-81
2021/07/18 11:26:16;;;;;;;6.13;2.90;;;28.70;45.80;;;;;;5011912;28;20056;-86
2021/07/18 11:31:14;;;;;;;4.47;2.70;;;29.10;46.40;;;;;;5012923;28;20034;-79
2021/07/18 11:33:45;;;;;;;13.13;2.70;;;29.20;45.20;;;;;;5020491;28;20037;-80
2021/07/18 11:36:18;;;;;;;6.63;2.90;;;29.20;44.90;;;;;;5031126;28;20054;-79
2021/07/18 11:38:46;;;;;;;4.05;2.42;;;29.30;45.40;;;;;;5030975;28;20052;-79
2021/07/18 11:41:20;;;;;;;2.85;2.40;;;29.30;45.60;;;;;;5031944;28;20403;-79
2021/07/18 11:43:52;;;;;;;8.38;2.20;;;29.50;44.90;;;;;;5031918;28;20053;-78
2021/07/18 11:46:21;;;;;;;4.57;2.20;;;29.50;44.40;;;;;;5047129;28;20399;-78
2021/07/18 11:48:54;;;;;;;5.05;2.40;;;29.50;43.80;;;;;;5031080;28;20487;-79
2021/07/18 11:51:24;;;;;;;4.75;2.42;;;29.60;42.80;;;;;;5030111;28;20048;-78
2021/07/18 11:53:59;;;;;;;6.60;2.17;;;29.60;43.80;;;;;;5031180;28;20049;-78
2021/07/18 11:56:37;;;;;;;5.22;2.20;;;29.50;43.80;;;;;;5030678;28;20049;-78
2021/07/18 11:59:06;;;;;;;4.80;1.88;;;29.60;43.80;;;;;;5031046;28;20056;-79
2021/07/18 12:01:37;;;;;;;5.35;2.17;;;29.60;41.80;;;;;;5027757;28;20045;-77
2021/07/18 12:04:10;;;;;;;3.05;2.10;;;29.60;41.50;;;;;;5031158;28;20053;-77
2021/07/18 12:06:38;;;;;;;5.30;1.98;;;29.70;40.50;;;;;;5029723;28;20041;-77
2021/07/18 12:09:13;;;;;;;3.53;2.17;;;29.70;40.80;;;;;;5030643;28;20076;-78
2021/07/18 12:11:42;;;;;;;3.95;2.00;;;29.80;40.70;;;;;;5022402;28;20406;-79
2021/07/18 12:14:12;;;;;;;4.10;1.98;;;29.80;40.40;;;;;;5031076;28;20041;-78
2021/07/18 12:16:40;;;;;;;2.58;1.88;;;29.90;41.20;;;;;;5031395;28;20411;-78
2021/07/18 12:19:08;;;;;;;4.47;1.63;;;30.00;40.80;;;;;;5062319;28;20060;-81
2021/07/18 12:21:39;;;;;;;3.60;1.90;;;30.10;40.20;;;;;;5029771;28;20492;-83
2021/07/18 12:24:09;;;;;;;6.22;2.08;;;30.10;40.10;;;;;;5032114;28;20061;-81
2021/07/18 12:26:38;;;;;;;4.60;1.90;;;30.20;40.30;;;;;;5046092;28;20042;-81
2021/07/18 12:29:09;;;;;;;5.65;1.92;;;30.30;40.50;;;;;;5046353;28;20410;-79
2021/07/18 12:31:38;;;;;;;3.95;1.90;;;30.50;39.10;;;;;;5031353;28;20052;-78
2021/07/18 12:34:07;;;;;;;3.92;2.05;;;30.60;38.70;;;;;;5031550;28;20052;-79
2021/07/18 12:37:14;;;;;;;5.45;1.90;;;30.70;39.10;;;;;;5031057;28;20045;-79
2021/07/18 12:39:44;;;;;;;2.83;1.80;;;30.80;39.70;;;;;;4988602;28;20050;-80
2021/07/18 12:42:19;;;;;;;3.28;1.67;;;31.10;39.10;;;;;;4973114;28;20070;-80
2021/07/18 12:44:55;;;;;;;2.75;1.80;;;31.20;37.50;;;;;;4989551;28;20047;-80
2021/07/18 12:47:28;;;;;;;5.97;1.80;;;31.40;37.20;;;;;;4993463;28;20057;-80
2021/07/18 12:50:14;;;;;;;3.23;1.60;;;31.70;36.90;;;;;;4993620;28;20065;-80
2021/07/18 12:52:56;;;;;;;4.65;1.88;;;31.80;36.70;;;;;;4976740;28;20726;-79
2021/07/18 12:55:42;;;;;;;2.03;1.75;;;32.00;36.50;;;;;;4993374;28;20058;-80